Time;durP1;ratioP1;P1;durP2;ratioP2;P2;SDS_P1;SDS_P2;PMS_P1;PMS_P2;Temp;Humidity;BMP_temperature;BMP_pressure;BME280_temperature;BME280_humidity;BME280_pressure;Samples;Min_cycle;Max_cycle;Signal;HPM_P1;HPM_P2
2021/12/21 00:00:24;;;;;;;49.95;22.17;;;;;;;;;;5079737;27;20120;-78
2021/12/21 00:02:52;;;;;;;57.65;27.10;;;;;;;;;;5092043;28;20052;-79
2021/12/21 00:05:20;;;;;;;51.47;24.75;;;;;;;;;;5090508;28;20043;-77
2021/12/21 00:07:47;;;;;;;50.22;26.98;;;;;;;;;;5090876;27;20402;-77
2021/12/21 00:10:13;;;;;;;52.42;27.10;;;;;;;;;;5111491;27;20388;-78
2021/12/21 00:12:49;;;;;;;59.70;28.83;;;;;;;;;;5093770;28;20722;-78
2021/12/21 00:15:23;;;;;;;52.83;28.00;;;;;;;;;;5099109;27;20051;-77
2021/12/21 00:17:58;;;;;;;56.47;28.38;;;;;;;;;;5107210;27;20535;-79
2021/12/21 00:20:34;;;;;;;53.90;28.10;;;;;;;;;;5105257;27;20051;-74
2021/12/21 00:25:32;;;;;;;51.20;25.75;;;;;;;;;;5121564;27;20043;-75
2021/12/21 00:27:58;;;;;;;47.63;24.45;;;;;;;;;;5121601;27;20099;-79
2021/12/21 00:30:24;;;;;;;44.95;24.98;;;;;;;;;;5116065;27;20039;-75
2021/12/21 00:32:50;;;;;;;47.22;23.88;;;;;;;;;;5110333;27;20054;-75
2021/12/21 00:35:16;;;;;;;48.03;23.33;;;;;;;;;;5107374;27;20054;-75
2021/12/21 00:37:43;;;;;;;45.70;22.55;;;;;;;;;;5127558;27;20489;-76
2021/12/21 00:40:10;;;;;;;46.88;23.67;;;;;;;;;;5131703;27;20375;-76
2021/12/21 00:42:36;;;;;;;45.70;23.30;;;;;;;;;;5126416;27;20047;-84
2021/12/21 00:45:03;;;;;;;38.28;23.13;;;;;;;;;;5117319;27;20551;-75
2021/12/21 00:47:29;;;;;;;45.35;21.67;;;;;;;;;;5126340;27;20043;-75
2021/12/21 00:50:01;;;;;;;48.55;21.85;;;;;;;;;;5129426;27;20035;-75
2021/12/21 00:52:27;;;;;;;42.42;20.23;;;;;;;;;;5127876;27;20543;-75
2021/12/21 00:54:53;;;;;;;41.28;21.40;;;;;;;;;;5097908;27;20041;-75
2021/12/21 00:57:19;;;;;;;42.35;21.40;;;;;;;;;;5110790;27;20051;-75
2021/12/21 00:59:45;;;;;;;38.22;20.60;;;;;;;;;;5110212;27;20042;-75
2021/12/21 01:02:12;;;;;;;40.00;19.20;;;;;;;;;;5129940;27;20103;-75
2021/12/21 01:04:43;;;;;;;35.45;18.60;;;;;;;;;;5128002;27;20085;-75
2021/12/21 01:12:39;;;;;;;34.67;18.60;;;;;;;;;;5155942;27;20046;-75
2021/12/21 01:15:20;;;;;;;33.47;17.70;;;;;;;;;;5112261;27;20051;-78
2021/12/21 01:18:00;;;;;;;33.03;17.95;;;;;;;;;;5112679;27;20424;-75
2021/12/21 01:20:41;;;;;;;32.10;17.15;;;;;;;;;;5108089;27;20049;-75
2021/12/21 01:26:15;;;;;;;29.67;16.48;;;;;;;;;;5104642;27;20046;-75
2021/12/21 01:31:25;;;;;;;29.55;15.43;;;;;;;;;;5126563;27;20554;-75
2021/12/21 01:36:32;;;;;;;30.52;15.32;;;;;;;;;;5159121;27;20070;-75
2021/12/21 01:39:07;;;;;;;29.02;14.45;;;;;;;;;;5112669;27;20130;-74
2021/12/21 01:41:42;;;;;;;30.75;15.23;;;;;;;;;;5128162;27;20039;-75
2021/12/21 01:44:44;;;;;;;28.92;15.52;;;;;;;;;;5130044;27;20078;-74
2021/12/21 01:49:49;;;;;;;27.42;13.98;;;;;;;;;;5125049;27;20402;-74
2021/12/21 01:52:17;;;;;;;31.08;16.00;;;;;;;;;;5129453;27;20047;-74
2021/12/21 01:54:43;;;;;;;31.27;15.85;;;;;;;;;;5126364;27;20031;-74
2021/12/21 01:57:10;;;;;;;32.42;15.57;;;;;;;;;;5127881;27;20122;-75
2021/12/21 01:59:37;;;;;;;27.73;14.13;;;;;;;;;;5127106;27;20126;-76
2021/12/21 02:02:04;;;;;;;26.15;14.55;;;;;;;;;;5125005;27;20394;-75
2021/12/21 02:04:30;;;;;;;30.55;14.73;;;;;;;;;;5125312;27;20040;-75
2021/12/21 02:06:56;;;;;;;29.27;14.40;;;;;;;;;;5112644;27;20078;-76
2021/12/21 02:09:28;;;;;;;23.67;14.07;;;;;;;;;;5112052;27;20057;-74
2021/12/21 02:11:54;;;;;;;24.42;14.55;;;;;;;;;;5107746;27;20045;-75
2021/12/21 02:14:20;;;;;;;25.20;14.57;;;;;;;;;;5129938;27;20179;-77
2021/12/21 02:19:52;;;;;;;25.00;12.73;;;;;;;;;;5112344;27;20051;-75
2021/12/21 02:22:13;;;;;;;23.55;12.65;;;;;;;;;;5123148;27;20039;-75
2021/12/21 02:24:57;;;;;;;25.13;13.15;;;;;;;;;;5124531;27;20039;-75
2021/12/21 02:27:41;;;;;;;23.73;12.75;;;;;;;;;;5110822;27;20047;-75
2021/12/21 02:30:08;;;;;;;26.83;13.13;;;;;;;;;;5112301;27;20050;-76
2021/12/21 02:32:34;;;;;;;23.05;13.02;;;;;;;;;;5128661;27;20420;-76
2021/12/21 02:35:00;;;;;;;24.67;13.00;;;;;;;;;;5117526;27;20556;-75
2021/12/21 02:37:26;;;;;;;24.20;12.82;;;;;;;;;;5101159;27;20070;-75
2021/12/21 02:39:52;;;;;;;24.50;12.85;;;;;;;;;;5119971;27;20047;-75
2021/12/21 02:42:18;;;;;;;21.50;12.10;;;;;;;;;;5124376;27;20039;-75
2021/12/21 02:44:48;;;;;;;20.23;12.25;;;;;;;;;;5121911;27;20440;-75
2021/12/21 02:47:14;;;;;;;23.60;13.30;;;;;;;;;;5109291;27;20047;-75
2021/12/21 02:49:40;;;;;;;22.10;12.00;;;;;;;;;;5126990;27;20069;-75
2021/12/21 02:52:06;;;;;;;21.10;12.15;;;;;;;;;;5123799;27;20043;-75
2021/12/21 02:54:33;;;;;;;22.58;11.93;;;;;;;;;;5120852;27;20047;-80
2021/12/21 02:56:59;;;;;;;22.77;12.52;;;;;;;;;;5124654;27;20563;-74
2021/12/21 02:59:25;;;;;;;19.98;11.85;;;;;;;;;;5110819;27;20439;-76
2021/12/21 03:01:51;;;;;;;26.60;13.50;;;;;;;;;;5110382;27;20054;-82
2021/12/21 03:04:17;;;;;;;23.83;12.90;;;;;;;;;;5127795;27;20118;-74
2021/12/21 03:14:38;;;;;;;21.27;12.30;;;;;;;;;;5093631;27;20051;-75
2021/12/21 03:17:05;;;;;;;21.85;11.63;;;;;;;;;;5141485;27;20051;-75
2021/12/21 03:19:31;;;;;;;24.60;12.45;;;;;;;;;;5112148;27;20051;-75
2021/12/21 03:21:57;;;;;;;20.40;10.82;;;;;;;;;;5122252;27;20074;-74
2021/12/21 03:24:23;;;;;;;24.83;12.23;;;;;;;;;;5113359;27;20430;-74
2021/12/21 03:26:50;;;;;;;20.70;11.45;;;;;;;;;;5126761;27;20082;-75
2021/12/21 03:29:16;;;;;;;16.95;10.77;;;;;;;;;;5131293;27;20493;-75
2021/12/21 03:31:42;;;;;;;22.77;11.77;;;;;;;;;;5132030;27;20134;-75
2021/12/21 03:34:08;;;;;;;19.38;12.27;;;;;;;;;;5113557;27;20049;-75
2021/12/21 03:36:35;;;;;;;22.85;11.63;;;;;;;;;;5097248;27;20389;-75
2021/12/21 03:39:06;;;;;;;21.02;11.50;;;;;;;;;;5128119;27;20051;-75
2021/12/21 03:41:33;;;;;;;22.98;10.93;;;;;;;;;;5091163;27;20440;-75
2021/12/21 03:44:01;;;;;;;24.83;11.73;;;;;;;;;;5111112;27;20079;-74
2021/12/21 03:46:28;;;;;;;19.83;10.85;;;;;;;;;;5131977;27;20050;-74
2021/12/21 03:48:54;;;;;;;21.25;10.73;;;;;;;;;;5130065;27;20536;-74
2021/12/21 03:51:21;;;;;;;20.73;11.77;;;;;;;;;;5126701;27;20070;-79
2021/12/21 03:53:47;;;;;;;20.67;11.82;;;;;;;;;;5132022;27;20035;-75
2021/12/21 03:58:46;;;;;;;24.05;12.13;;;;;;;;;;5129030;27;20066;-75
2021/12/21 04:01:12;;;;;;;18.95;11.45;;;;;;;;;;5125535;27;20470;-75
2021/12/21 04:03:39;;;;;;;20.17;10.75;;;;;;;;;;5127006;27;20045;-77
2021/12/21 04:06:06;;;;;;;21.40;10.68;;;;;;;;;;5126022;27;20083;-75
2021/12/21 04:08:33;;;;;;;18.27;10.65;;;;;;;;;;5114912;27;20047;-75
2021/12/21 04:10:59;;;;;;;21.00;11.07;;;;;;;;;;5125569;27;20055;-75
2021/12/21 04:13:26;;;;;;;19.17;10.13;;;;;;;;;;5129213;27;20043;-75
2021/12/21 04:15:53;;;;;;;25.80;11.23;;;;;;;;;;5129114;27;20050;-75
2021/12/21 04:18:22;;;;;;;17.98;10.38;;;;;;;;;;5122567;27;20049;-75
2021/12/21 04:20:49;;;;;;;26.83;11.13;;;;;;;;;;5124573;27;20107;-75
2021/12/21 04:23:15;;;;;;;25.13;11.52;;;;;;;;;;5115427;27;20042;-74
2021/12/21 04:25:42;;;;;;;21.67;12.15;;;;;;;;;;5115199;27;20041;-74
2021/12/21 04:28:08;;;;;;;19.58;10.63;;;;;;;;;;5116528;27;20192;-78
2021/12/21 04:30:34;;;;;;;20.00;11.02;;;;;;;;;;5134636;27;20039;-82
2021/12/21 04:33:00;;;;;;;23.13;11.18;;;;;;;;;;5126053;27;20118;-74
2021/12/21 04:35:26;;;;;;;20.90;10.10;;;;;;;;;;5123960;27;20047;-75
2021/12/21 04:37:57;;;;;;;23.30;11.38;;;;;;;;;;5125114;27;20094;-75
2021/12/21 04:40:37;;;;;;;24.80;11.27;;;;;;;;;;5110942;27;20046;-75
2021/12/21 04:43:03;;;;;;;19.10;11.80;;;;;;;;;;5109182;27;20497;-74
2021/12/21 04:45:29;;;;;;;20.60;12.07;;;;;;;;;;5129791;27;20042;-75
2021/12/21 04:47:55;;;;;;;24.23;12.43;;;;;;;;;;5140449;27;20041;-75
2021/12/21 04:50:21;;;;;;;20.95;11.25;;;;;;;;;;5096846;27;20050;-75
2021/12/21 04:52:47;;;;;;;22.17;12.07;;;;;;;;;;5155492;27;20051;-75
2021/12/21 04:55:13;;;;;;;22.23;12.02;;;;;;;;;;5104730;27;20038;-75
2021/12/21 04:57:40;;;;;;;26.05;11.63;;;;;;;;;;5128191;27;20048;-75
2021/12/21 05:00:08;;;;;;;26.08;11.85;;;;;;;;;;5151333;27;20042;-75
2021/12/21 05:02:34;;;;;;;23.33;11.45;;;;;;;;;;5129567;27;20057;-76
2021/12/21 05:05:00;;;;;;;20.33;11.68;;;;;;;;;;5143299;27;20413;-75
2021/12/21 05:07:29;;;;;;;26.92;11.98;;;;;;;;;;5122501;27;20071;-75
2021/12/21 05:09:57;;;;;;;21.63;11.38;;;;;;;;;;5139317;27;20058;-80
2021/12/21 05:12:23;;;;;;;25.23;12.13;;;;;;;;;;5114778;27;20050;-75
2021/12/21 05:14:50;;;;;;;24.40;11.85;;;;;;;;;;5113668;27;20058;-75
2021/12/21 05:17:16;;;;;;;21.48;10.95;;;;;;;;;;5113574;27;20051;-75
2021/12/21 05:19:42;;;;;;;25.65;11.73;;;;;;;;;;5125229;27;20034;-74
2021/12/21 05:22:08;;;;;;;24.50;11.23;;;;;;;;;;5109192;27;20038;-75
2021/12/21 05:24:34;;;;;;;21.25;10.52;;;;;;;;;;5129303;27;20039;-74
2021/12/21 05:27:00;;;;;;;26.17;11.15;;;;;;;;;;5109255;27;20075;-74
2021/12/21 05:29:27;;;;;;;24.42;11.77;;;;;;;;;;5126656;27;20113;-75
2021/12/21 05:31:53;;;;;;;29.80;12.73;;;;;;;;;;5156852;27;20034;-74
2021/12/21 05:34:19;;;;;;;23.75;12.07;;;;;;;;;;5112630;27;20070;-74
2021/12/21 05:36:45;;;;;;;25.35;12.77;;;;;;;;;;5106220;27;20154;-74
2021/12/21 05:39:21;;;;;;;24.00;12.82;;;;;;;;;;5124990;27;20125;-74
2021/12/21 05:44:17;;;;;;;25.73;12.75;;;;;;;;;;5129484;27;20038;-74
2021/12/21 05:46:43;;;;;;;23.55;12.57;;;;;;;;;;5110650;27;20059;-74
2021/12/21 05:49:09;;;;;;;25.67;12.80;;;;;;;;;;5121069;27;20062;-77
2021/12/21 05:51:35;;;;;;;24.80;13.43;;;;;;;;;;5121612;27;20073;-74
2021/12/21 05:54:01;;;;;;;25.15;11.48;;;;;;;;;;5128709;27;20423;-71
2021/12/21 05:56:27;;;;;;;24.88;11.20;;;;;;;;;;5125042;27;20611;-76
2021/12/21 05:58:53;;;;;;;25.67;11.57;;;;;;;;;;5162197;27;20042;-73
2021/12/21 06:01:19;;;;;;;20.58;10.32;;;;;;;;;;5115344;27;20052;-74
2021/12/21 06:03:46;;;;;;;25.60;11.98;;;;;;;;;;5100703;27;20495;-77
2021/12/21 06:06:14;;;;;;;19.65;10.57;;;;;;;;;;5114056;27;20040;-74
2021/12/21 06:08:42;;;;;;;22.65;10.95;;;;;;;;;;5100427;27;20086;-74
2021/12/21 06:11:08;;;;;;;26.20;12.73;;;;;;;;;;5127807;27;20556;-74
2021/12/21 06:26:43;;;;;;;19.13;10.55;;;;;;;;;;5094173;28;20058;-72
2021/12/21 06:29:10;;;;;;;21.85;12.00;;;;;;;;;;5091525;28;20126;-73
2021/12/21 06:31:36;;;;;;;21.80;12.18;;;;;;;;;;5085019;28;20506;-73
2021/12/21 06:34:02;;;;;;;18.70;10.95;;;;;;;;;;5080050;28;20042;-72
2021/12/21 06:36:28;;;;;;;21.42;11.35;;;;;;;;;;5095781;28;20082;-74
2021/12/21 06:38:54;;;;;;;21.08;11.20;;;;;;;;;;5102286;27;20042;-73
2021/12/21 06:41:21;;;;;;;28.23;11.13;;;;;;;;;;5090320;28;20055;-74
2021/12/21 06:43:47;;;;;;;19.30;10.95;;;;;;;;;;5092000;28;20095;-77
2021/12/21 06:51:50;;;;;;;20.60;10.95;;;;;;;;;;5107579;27;20472;-74
2021/12/21 06:54:17;;;;;;;17.33;10.65;;;;;;;;;;5086295;27;20445;-75
2021/12/21 06:56:43;;;;;;;22.13;11.20;;;;;;;;;;5098665;27;20039;-77
2021/12/21 06:59:09;;;;;;;22.67;12.27;;;;;;;;;;5105212;28;20088;-76
2021/12/21 07:01:38;;;;;;;24.00;11.15;;;;;;;;;;5087588;27;20054;-75
2021/12/21 07:04:05;;;;;;;22.92;11.30;;;;;;;;;;5093830;28;20047;-78
2021/12/21 07:06:32;;;;;;;19.92;10.65;;;;;;;;;;5098383;27;20046;-75
2021/12/21 07:19:29;;;;;;;22.08;11.32;;;;;;;;;;5118559;27;20098;-74
2021/12/21 07:21:55;;;;;;;21.00;12.13;;;;;;;;;;5097673;28;20221;-78
2021/12/21 07:24:22;;;;;;;21.38;11.80;;;;;;;;;;5097585;28;20122;-74
2021/12/21 07:26:49;;;;;;;19.13;12.10;;;;;;;;;;5080282;28;20545;-79
2021/12/21 07:29:15;;;;;;;18.75;10.73;;;;;;;;;;5099690;28;20048;-74
2021/12/21 07:31:41;;;;;;;26.45;13.93;;;;;;;;;;5110116;28;20548;-75
2021/12/21 07:34:07;;;;;;;20.00;12.18;;;;;;;;;;5106078;28;20479;-72
2021/12/21 07:36:34;;;;;;;28.38;15.55;;;;;;;;;;5102014;28;20079;-75
2021/12/21 07:39:00;;;;;;;23.00;13.20;;;;;;;;;;5079282;28;20086;-75
2021/12/21 07:41:27;;;;;;;27.90;13.52;;;;;;;;;;5090989;28;20036;-73
2021/12/21 07:43:53;;;;;;;25.75;12.80;;;;;;;;;;5107682;28;20113;-77
2021/12/21 07:46:19;;;;;;;54.22;30.83;;;;;;;;;;5074963;28;20062;-73
2021/12/21 07:48:45;;;;;;;33.30;18.90;;;;;;;;;;5087359;28;20048;-73
2021/12/21 07:51:11;;;;;;;25.25;14.43;;;;;;;;;;5089950;28;20486;-73
2021/12/21 07:53:37;;;;;;;24.40;13.48;;;;;;;;;;5088059;28;20039;-74
2021/12/21 07:56:03;;;;;;;21.95;12.23;;;;;;;;;;5105508;28;20039;-74
2021/12/21 07:58:33;;;;;;;22.13;12.00;;;;;;;;;;5089847;28;20051;-73
2021/12/21 08:01:00;;;;;;;23.55;12.43;;;;;;;;;;5097849;28;20038;-78
2021/12/21 08:03:27;;;;;;;23.00;12.50;;;;;;;;;;5109972;28;20035;-75
2021/12/21 08:05:56;;;;;;;25.92;13.18;;;;;;;;;;5092212;28;20099;-76
2021/12/21 08:08:26;;;;;;;22.00;12.45;;;;;;;;;;5093206;28;20377;-76
2021/12/21 08:10:56;;;;;;;29.30;13.27;;;;;;;;;;5092021;27;20051;-75
2021/12/21 08:13:22;;;;;;;25.23;13.02;;;;;;;;;;5107406;28;20043;-77
2021/12/21 08:15:48;;;;;;;20.88;12.63;;;;;;;;;;5106628;28;20501;-76
2021/12/21 08:18:15;;;;;;;33.72;13.10;;;;;;;;;;5108139;28;20126;-75
2021/12/21 08:20:41;;;;;;;21.83;13.18;;;;;;;;;;5091590;28;20374;-74
2021/12/21 08:23:08;;;;;;;26.67;12.95;;;;;;;;;;5109026;28;20134;-74
2021/12/21 08:25:34;;;;;;;29.15;13.65;;;;;;;;;;5104889;28;20481;-73
2021/12/21 08:28:01;;;;;;;31.40;14.52;;;;;;;;;;5106807;28;20047;-72
2021/12/21 08:30:27;;;;;;;22.30;12.88;;;;;;;;;;5107012;28;20039;-72
2021/12/21 08:32:54;;;;;;;22.50;12.55;;;;;;;;;;5091585;28;20355;-72
2021/12/21 08:35:20;;;;;;;23.85;13.75;;;;;;;;;;5106292;28;20051;-73
2021/12/21 08:37:51;;;;;;;34.67;15.35;;;;;;;;;;5107368;28;20245;-75
2021/12/21 08:40:18;;;;;;;25.38;13.43;;;;;;;;;;5093802;28;20043;-75
2021/12/21 08:42:46;;;;;;;30.13;13.88;;;;;;;;;;5089725;28;20411;-76
2021/12/21 08:45:13;;;;;;;26.98;14.00;;;;;;;;;;5105189;27;20035;-76
2021/12/21 08:47:39;;;;;;;24.17;13.32;;;;;;;;;;5105967;28;20035;-76
2021/12/21 08:50:06;;;;;;;25.08;13.93;;;;;;;;;;5108472;27;20369;-80
2021/12/21 08:52:34;;;;;;;29.48;15.55;;;;;;;;;;5108929;28;20138;-77
2021/12/21 08:55:02;;;;;;;26.45;15.80;;;;;;;;;;5087076;28;20032;-76
2021/12/21 08:57:28;;;;;;;31.65;15.68;;;;;;;;;;5106401;27;20486;-81
2021/12/21 08:59:54;;;;;;;27.95;15.52;;;;;;;;;;5088594;28;20043;-76
2021/12/21 09:02:20;;;;;;;25.73;15.20;;;;;;;;;;5094289;28;20047;-75
2021/12/21 09:04:46;;;;;;;29.63;15.63;;;;;;;;;;5109184;28;20054;-75
2021/12/21 09:07:13;;;;;;;27.27;14.70;;;;;;;;;;5092551;28;20963;-75
2021/12/21 09:09:39;;;;;;;28.55;16.42;;;;;;;;;;5074126;28;20055;-74
2021/12/21 09:12:05;;;;;;;30.38;15.93;;;;;;;;;;5111150;28;20092;-76
2021/12/21 09:14:32;;;;;;;30.15;16.50;;;;;;;;;;5091648;27;20036;-78
2021/12/21 09:17:02;;;;;;;27.60;15.73;;;;;;;;;;5117374;27;20043;-75
2021/12/21 09:19:28;;;;;;;30.08;15.98;;;;;;;;;;5117068;27;20035;-75
2021/12/21 09:21:54;;;;;;;28.15;15.40;;;;;;;;;;5136465;27;20046;-74
2021/12/21 09:24:20;;;;;;;25.70;14.73;;;;;;;;;;5133300;27;20121;-75
2021/12/21 09:26:46;;;;;;;29.75;14.38;;;;;;;;;;5117893;27;20051;-75
2021/12/21 09:29:12;;;;;;;27.55;15.02;;;;;;;;;;5127356;27;20043;-74
2021/12/21 09:31:38;;;;;;;20.80;13.48;;;;;;;;;;5113622;27;20043;-76
2021/12/21 09:34:04;;;;;;;25.08;12.38;;;;;;;;;;5100036;27;20046;-74
2021/12/21 09:36:31;;;;;;;22.77;13.48;;;;;;;;;;5121282;27;20085;-75
2021/12/21 09:38:57;;;;;;;;;;;;;;;;;;5112521;27;20424;-77
2021/12/21 09:41:23;;;;;;;;;;;;;;;;;;5127121;27;19972;-76
2021/12/21 09:43:49;;;;;;;20.95;10.50;;;;;;;;;;5112759;27;19919;-76
2021/12/21 09:46:15;;;;;;;18.65;9.57;;;;;;;;;;5113932;27;20413;-79
2021/12/21 09:48:41;;;;;;;14.07;9.88;;;;;;;;;;5131239;27;20049;-74
2021/12/21 09:51:08;;;;;;;14.50;8.27;;;;;;;;;;5130870;27;20046;-75
2021/12/21 09:53:35;;;;;;;13.27;8.32;;;;;;;;;;5138420;27;20476;-75
2021/12/21 09:56:05;;;;;;;16.80;8.55;;;;;;;;;;5134013;27;20046;-75
2021/12/21 09:58:31;;;;;;;15.02;9.18;;;;;;;;;;5132401;27;20085;-76
2021/12/21 10:00:57;;;;;;;17.55;10.05;;;;;;;;;;5131573;27;20409;-75
2021/12/21 10:03:23;;;;;;;15.88;9.43;;;;;;;;;;5123632;27;20405;-75
2021/12/21 10:05:49;;;;;;;19.25;10.18;;;;;;;;;;5111863;27;20459;-75
2021/12/21 10:08:18;;;;;;;13.48;7.82;;;;;;;;;;5129229;27;20050;-75
2021/12/21 10:10:45;;;;;;;15.20;9.13;;;;;;;;;;5112664;27;20110;-75
2021/12/21 10:13:13;;;;;;;17.40;8.43;;;;;;;;;;5112960;27;20043;-77
2021/12/21 10:15:45;;;;;;;17.00;9.05;;;;;;;;;;5108449;27;20081;-76
2021/12/21 10:18:11;;;;;;;18.48;9.30;;;;;;;;;;5136392;27;20464;-75
2021/12/21 10:20:40;;;;;;;16.42;8.75;;;;;;;;;;5113082;27;20074;-70
2021/12/21 10:23:15;;;;;;;18.27;9.38;;;;;;;;;;5116518;27;20043;-72
2021/12/21 10:25:43;;;;;;;16.77;8.68;;;;;;;;;;5129149;27;20117;-71
2021/12/21 10:28:09;;;;;;;15.73;9.25;;;;;;;;;;5130245;27;20045;-72
2021/12/21 10:30:46;;;;;;;16.52;9.32;;;;;;;;;;5126518;27;20114;-72
2021/12/21 10:33:12;;;;;;;15.73;9.35;;;;;;;;;;5130417;27;20130;-73
2021/12/21 10:35:39;;;;;;;20.15;9.40;;;;;;;;;;5108905;27;20050;-73
2021/12/21 10:38:05;;;;;;;17.30;10.45;;;;;;;;;;5128821;27;20043;-73
2021/12/21 10:40:31;;;;;;;21.70;11.45;;;;;;;;;;5128978;27;20082;-75
2021/12/21 10:42:58;;;;;;;20.02;9.90;;;;;;;;;;5129470;27;20070;-74
2021/12/21 10:45:28;;;;;;;14.95;10.07;;;;;;;;;;5132594;27;20103;-73
2021/12/21 10:47:54;;;;;;;24.63;10.77;;;;;;;;;;5130957;27;20486;-75
2021/12/21 10:50:21;;;;;;;20.13;10.20;;;;;;;;;;5116345;27;20166;-76
2021/12/21 10:52:52;;;;;;;17.55;9.30;;;;;;;;;;5132556;27;20427;-75
2021/12/21 10:55:24;;;;;;;27.45;10.20;;;;;;;;;;5162965;27;20092;-75
2021/12/21 10:58:00;;;;;;;19.75;11.65;;;;;;;;;;5128445;27;20514;-74
2021/12/21 11:00:26;;;;;;;18.30;11.45;;;;;;;;;;5130193;27;20038;-76
2021/12/21 11:02:54;;;;;;;21.83;11.02;;;;;;;;;;5115247;27;20042;-76
2021/12/21 11:05:21;;;;;;;19.20;11.27;;;;;;;;;;5113846;27;20485;-75
2021/12/21 11:10:25;;;;;;;17.80;9.60;;;;;;;;;;5129590;27;20038;-73
2021/12/21 11:12:53;;;;;;;17.83;9.48;;;;;;;;;;5129273;27;20042;-75
2021/12/21 11:15:29;;;;;;;22.08;12.23;;;;;;;;;;5121099;27;20486;-76
2021/12/21 11:18:18;;;;;;;20.02;9.52;;;;;;;;;;5113389;27;20053;-73
2021/12/21 11:20:48;;;;;;;23.13;11.18;;;;;;;;;;5125975;27;20386;-74
2021/12/21 11:23:15;;;;;;;16.63;9.27;;;;;;;;;;5110262;27;20133;-75
2021/12/21 11:25:42;;;;;;;16.40;9.07;;;;;;;;;;5127939;27;20465;-80
2021/12/21 11:28:09;;;;;;;17.02;9.07;;;;;;;;;;5129518;27;20055;-75
2021/12/21 11:30:35;;;;;;;12.00;8.07;;;;;;;;;;5109291;27;20043;-78
2021/12/21 11:33:02;;;;;;;14.65;8.15;;;;;;;;;;5113379;27;20449;-76
2021/12/21 11:38:01;;;;;;;12.93;8.40;;;;;;;;;;5126073;27;20047;-73
2021/12/21 11:40:29;;;;;;;13.43;8.80;;;;;;;;;;5126624;27;20035;-75
2021/12/21 11:42:55;;;;;;;17.70;9.27;;;;;;;;;;5129621;27;20389;-74
2021/12/21 11:45:27;;;;;;;16.08;8.18;;;;;;;;;;5112366;27;20054;-75
2021/12/21 11:47:59;;;;;;;15.85;8.35;;;;;;;;;;5113475;27;20053;-76
2021/12/21 11:50:26;;;;;;;15.02;7.78;;;;;;;;;;5130694;27;20078;-75
2021/12/21 11:52:53;;;;;;;15.45;8.50;;;;;;;;;;5112784;27;20601;-74
2021/12/21 11:55:22;;;;;;;15.95;9.48;;;;;;;;;;5114173;27;20078;-73
2021/12/21 11:57:49;;;;;;;14.95;8.50;;;;;;;;;;5118651;27;20042;-72
2021/12/21 12:00:15;;;;;;;17.98;8.85;;;;;;;;;;5131199;27;20549;-74
2021/12/21 12:02:42;;;;;;;12.30;8.13;;;;;;;;;;5126875;27;20038;-73
2021/12/21 12:05:29;;;;;;;12.98;8.73;;;;;;;;;;5111400;27;20087;-76
2021/12/21 12:08:13;;;;;;;15.50;7.70;;;;;;;;;;5114108;27;20051;-79
2021/12/21 12:10:47;;;;;;;14.43;7.55;;;;;;;;;;5144807;27;20072;-78
2021/12/21 12:13:33;;;;;;;14.40;8.07;;;;;;;;;;5121003;27;20085;-74
2021/12/21 12:16:02;;;;;;;14.68;7.90;;;;;;;;;;5132539;27;20430;-77
2021/12/21 12:18:32;;;;;;;13.38;8.05;;;;;;;;;;5136927;27;20061;-77
2021/12/21 12:20:59;;;;;;;16.50;8.40;;;;;;;;;;5134531;27;20043;-77
2021/12/21 12:23:25;;;;;;;17.20;8.75;;;;;;;;;;5116969;27;20055;-75
2021/12/21 12:25:59;;;;;;;15.02;7.13;;;;;;;;;;5116707;27;20385;-77
2021/12/21 12:28:27;;;;;;;17.17;5.72;;;;;;;;;;5166758;27;20482;-72
2021/12/21 12:30:55;;;;;;;9.80;5.40;;;;;;;;;;5164073;27;20465;-73
2021/12/21 12:33:22;;;;;;;10.30;5.05;;;;;;;;;;5134771;27;21567;-75
2021/12/21 12:35:48;;;;;;;8.52;4.85;;;;;;;;;;5117739;27;20072;-82
2021/12/21 12:38:21;;;;;;;12.13;5.20;;;;;;;;;;5135743;27;20443;-77
2021/12/21 12:40:50;;;;;;;10.73;5.35;;;;;;;;;;5112595;27;20046;-74
2021/12/21 12:43:21;;;;;;;10.20;5.88;;;;;;;;;;5133983;27;20042;-76
2021/12/21 12:45:52;;;;;;;12.25;5.38;;;;;;;;;;5135163;27;20492;-77
2021/12/21 12:48:18;;;;;;;14.20;5.28;;;;;;;;;;5136020;27;20141;-75
2021/12/21 12:50:45;;;;;;;9.85;5.00;;;;;;;;;;5116518;27;20394;-72
2021/12/21 12:53:11;;;;;;;9.15;4.82;;;;;;;;;;5127647;27;20042;-72
2021/12/21 12:55:42;;;;;;;15.80;5.45;;;;;;;;;;5128861;27;20508;-76
2021/12/21 12:58:14;;;;;;;10.52;5.55;;;;;;;;;;5132481;27;20042;-73
2021/12/21 13:00:42;;;;;;;12.88;5.65;;;;;;;;;;5125229;27;20548;-75
2021/12/21 13:03:10;;;;;;;11.95;5.10;;;;;;;;;;5113842;27;20045;-78
2021/12/21 13:05:52;;;;;;;7.95;4.50;;;;;;;;;;5134491;27;20069;-77
2021/12/21 13:08:18;;;;;;;11.45;5.07;;;;;;;;;;5117464;27;20039;-75
2021/12/21 13:10:46;;;;;;;10.55;4.53;;;;;;;;;;5121304;27;20042;-75
2021/12/21 13:13:13;;;;;;;10.68;5.20;;;;;;;;;;5134514;27;20564;-75
2021/12/21 13:15:43;;;;;;;7.68;4.32;;;;;;;;;;5116558;27;20524;-74
2021/12/21 13:18:13;;;;;;;11.07;5.00;;;;;;;;;;5132630;27;21166;-75
2021/12/21 13:20:41;;;;;;;9.07;4.75;;;;;;;;;;5131080;27;20046;-75
2021/12/21 13:23:11;;;;;;;13.18;4.60;;;;;;;;;;5113571;27;20141;-75
2021/12/21 13:25:37;;;;;;;9.15;4.75;;;;;;;;;;5132235;27;20043;-75
2021/12/21 13:28:10;;;;;;;12.50;5.00;;;;;;;;;;5115589;27;20543;-75
2021/12/21 13:30:37;;;;;;;13.07;5.50;;;;;;;;;;5117396;27;20131;-75
2021/12/21 13:33:05;;;;;;;13.65;4.97;;;;;;;;;;5129768;27;20074;-76
2021/12/21 13:35:32;;;;;;;10.80;4.93;;;;;;;;;;5131158;27;20049;-76
2021/12/21 13:37:59;;;;;;;11.02;5.20;;;;;;;;;;5109646;27;20046;-74
2021/12/21 13:40:29;;;;;;;12.45;5.60;;;;;;;;;;5115511;27;20051;-75
2021/12/21 13:42:56;;;;;;;13.25;5.70;;;;;;;;;;5114395;27;20159;-76
2021/12/21 13:45:22;;;;;;;13.38;5.35;;;;;;;;;;5132862;27;20477;-75
2021/12/21 13:47:50;;;;;;;11.93;5.82;;;;;;;;;;5155388;27;20125;-75
2021/12/21 13:50:23;;;;;;;13.63;6.90;;;;;;;;;;5130199;27;20493;-74
2021/12/21 13:52:57;;;;;;;14.02;7.32;;;;;;;;;;5133372;27;20481;-75
2021/12/21 13:55:36;;;;;;;13.25;6.97;;;;;;;;;;5112831;27;20600;-75
2021/12/21 13:58:05;;;;;;;13.52;7.00;;;;;;;;;;5122486;27;20046;-75
2021/12/21 14:00:34;;;;;;;14.25;7.03;;;;;;;;;;5141149;27;20042;-75
2021/12/21 14:03:27;;;;;;;13.60;7.07;;;;;;;;;;5161297;27;20078;-76
2021/12/21 14:06:07;;;;;;;16.42;6.85;;;;;;;;;;5129112;27;20095;-76
2021/12/21 14:08:33;;;;;;;12.93;6.72;;;;;;;;;;5110870;27;20051;-76
2021/12/21 14:11:00;;;;;;;16.88;7.97;;;;;;;;;;5141884;27;20117;-76
2021/12/21 14:13:31;;;;;;;13.48;7.43;;;;;;;;;;5135564;27;20061;-78
2021/12/21 14:15:57;;;;;;;19.67;9.40;;;;;;;;;;5133017;27;20524;-85
2021/12/21 14:18:24;;;;;;;22.17;8.77;;;;;;;;;;5136022;27;20069;-77
2021/12/21 14:21:00;;;;;;;13.48;8.95;;;;;;;;;;5134770;27;20042;-77
2021/12/21 14:23:28;;;;;;;16.02;8.32;;;;;;;;;;5131647;27;20068;-78
2021/12/21 14:26:04;;;;;;;18.45;8.60;;;;;;;;;;5116265;27;20580;-74
2021/12/21 14:28:30;;;;;;;15.38;8.48;;;;;;;;;;5132883;27;20050;-85
2021/12/21 14:31:03;;;;;;;20.40;8.55;;;;;;;;;;5120074;27;20410;-77
2021/12/21 14:33:44;;;;;;;14.10;8.43;;;;;;;;;;5125250;27;20082;-76
2021/12/21 14:36:15;;;;;;;18.83;8.25;;;;;;;;;;5113332;27;20053;-78
2021/12/21 14:38:49;;;;;;;17.45;8.52;;;;;;;;;;5128563;27;20049;-71
2021/12/21 14:41:19;;;;;;;14.15;7.43;;;;;;;;;;5132364;27;20051;-79
2021/12/21 14:43:45;;;;;;;15.23;8.45;;;;;;;;;;5129892;27;20034;-77
2021/12/21 14:46:18;;;;;;;14.48;8.25;;;;;;;;;;5112888;27;20493;-75
2021/12/21 14:48:47;;;;;;;13.07;8.45;;;;;;;;;;5135473;27;20047;-75
2021/12/21 14:51:14;;;;;;;19.40;10.13;;;;;;;;;;5116178;27;20042;-75
2021/12/21 14:53:49;;;;;;;13.45;8.18;;;;;;;;;;5124604;27;20092;-75
2021/12/21 14:56:31;;;;;;;17.35;8.82;;;;;;;;;;5130557;27;20055;-76
2021/12/21 14:58:58;;;;;;;17.15;8.13;;;;;;;;;;5127816;27;20050;-76
2021/12/21 15:01:24;;;;;;;18.10;8.40;;;;;;;;;;5116589;27;20042;-74
2021/12/21 15:03:51;;;;;;;15.52;9.13;;;;;;;;;;5130580;27;20062;-80
2021/12/21 15:06:17;;;;;;;49.17;30.48;;;;;;;;;;5135795;27;20449;-77
2021/12/21 15:08:43;;;;;;;42.03;26.42;;;;;;;;;;5118790;27;20038;-77
2021/12/21 15:11:09;;;;;;;41.75;25.35;;;;;;;;;;5120251;27;20409;-77
2021/12/21 15:13:35;;;;;;;39.88;25.40;;;;;;;;;;5112166;27;20453;-77
2021/12/21 15:16:01;;;;;;;33.83;21.92;;;;;;;;;;5117277;27;20107;-80
2021/12/21 15:18:27;;;;;;;33.53;19.80;;;;;;;;;;5121233;27;20053;-77
2021/12/21 15:20:53;;;;;;;37.08;21.10;;;;;;;;;;5112859;27;20038;-82
2021/12/21 15:23:19;;;;;;;30.77;18.00;;;;;;;;;;5134353;27;20102;-77
2021/12/21 15:25:45;;;;;;;26.23;16.05;;;;;;;;;;5131297;27;20039;-77
2021/12/21 15:28:11;;;;;;;29.30;16.63;;;;;;;;;;5112651;27;20046;-76
2021/12/21 15:30:37;;;;;;;26.92;15.27;;;;;;;;;;5098150;27;20049;-77
2021/12/21 15:33:03;;;;;;;22.77;14.30;;;;;;;;;;5132840;27;20081;-90
2021/12/21 15:35:33;;;;;;;25.95;14.73;;;;;;;;;;5135310;27;20453;-77